Boxboro, Massachusetts
Current Conditions -  °F | °C
As of 5:56 AM on Thursday 27 Nov 2014 (Local Time) from KBED Reporting Station
Broken Clouds Broken Clouds  
Wind Chill: 26°   Ceiling: 8000
Heat Index: 31°   Visibility: 10mi
Dew Point: 30°   Wind: 5mph
Humidity: 96%   Direction: 280°W
Pressure: 29.83"   Gusts: NA
Location:  42.4884°N, 71.5177°W
Report Text: KBED 271056Z 28004KT 10SM FEW022 BKN080 M01/M01 A2983 RMK AO2 SLP115 T10061011
Loading
Personal Weather Stations






























Interactive Weather Map New forecast layout! Learn more

10-Day Weather Forecast

Advertisements
Track Severe Weather on mobile